createdAt,value
2017-12-04T00:01:32.707Z,25.02
2017-12-04T00:03:58.955Z,23.80
2017-12-04T00:06:25.192Z,25.25
2017-12-04T00:08:51.428Z,22.27
2017-12-04T00:11:17.675Z,24.02
2017-12-04T00:13:43.912Z,24.35
2017-12-04T00:16:10.149Z,25.70
2017-12-04T00:18:36.419Z,27.52
2017-12-04T00:21:02.656Z,28.92
2017-12-04T00:23:28.877Z,25.00
2017-12-04T00:25:55.068Z,25.98
2017-12-04T00:28:21.320Z,26.10
2017-12-04T00:30:47.524Z,23.80
2017-12-04T00:33:13.755Z,23.08
2017-12-04T00:35:39.982Z,23.62
2017-12-04T00:38:06.199Z,23.23
2017-12-04T00:40:32.404Z,23.58
2017-12-04T00:42:58.622Z,23.58
2017-12-04T00:45:24.817Z,23.50
2017-12-04T00:47:51.062Z,21.83
2017-12-04T00:50:17.252Z,20.98
2017-12-04T00:52:43.625Z,21.55
2017-12-04T00:55:09.839Z,19.60
2017-12-04T00:57:36.027Z,20.27
2017-12-04T01:00:02.265Z,19.92
2017-12-04T01:02:28.527Z,21.83
2017-12-04T01:04:54.732Z,22.83
2017-12-04T01:07:20.949Z,20.52
2017-12-04T01:09:47.168Z,19.50
2017-12-04T01:12:13.387Z,20.00
2017-12-04T01:14:39.955Z,20.05
2017-12-04T01:17:06.196Z,19.50
2017-12-04T01:19:32.431Z,19.75
2017-12-04T01:21:58.697Z,18.60
2017-12-04T01:24:24.898Z,18.00
2017-12-04T01:26:51.177Z,18.95
2017-12-04T01:29:17.442Z,21.05
2017-12-04T01:31:43.648Z,21.05
2017-12-04T01:34:10.377Z,20.70
2017-12-04T01:36:36.586Z,19.75
2017-12-04T01:39:03.250Z,19.00
2017-12-04T01:41:29.827Z,18.10
2017-12-04T01:43:56.054Z,16.10
2017-12-04T01:46:22.273Z,17.08
2017-12-04T01:48:48.522Z,18.50
2017-12-04T01:51:14.759Z,19.73
2017-12-04T01:53:40.979Z,18.15
2017-12-04T01:56:07.193Z,18.77
2017-12-04T01:58:33.458Z,19.27
2017-12-04T02:01:00.070Z,20.67
2017-12-04T02:03:26.296Z,20.30
2017-12-04T02:05:52.511Z,20.90
2017-12-04T02:08:18.759Z,22.52
2017-12-04T02:10:44.981Z,21.33
2017-12-04T02:13:11.209Z,21.30
2017-12-04T02:15:37.459Z,20.42
2017-12-04T02:18:04.067Z,19.77
2017-12-04T02:20:30.331Z,17.00
2017-12-04T02:22:56.924Z,17.60
2017-12-04T02:25:23.182Z,17.20
2017-12-04T02:27:49.458Z,16.42
2017-12-04T02:30:15.726Z,17.35
2017-12-04T02:32:42.023Z,18.62
2017-12-04T02:35:08.258Z,19.00
2017-12-04T02:37:34.487Z,20.05
2017-12-04T02:40:00.749Z,18.02
2017-12-04T02:42:26.985Z,21.20
2017-12-04T02:44:53.231Z,20.48
2017-12-04T02:47:19.858Z,19.37
2017-12-04T02:49:46.463Z,19.58
2017-12-04T02:52:12.731Z,20.88
2017-12-04T02:54:39.344Z,20.62
2017-12-04T02:57:05.579Z,18.42
2017-12-04T02:59:31.811Z,17.75
2017-12-04T03:01:57.992Z,15.40
2017-12-04T03:04:24.217Z,17.50
2017-12-04T03:06:50.416Z,17.90
2017-12-04T03:09:16.623Z,18.42
2017-12-04T03:11:42.864Z,16.17
2017-12-04T03:14:09.092Z,16.77
2017-12-04T03:16:35.325Z,18.12
2017-12-04T03:19:01.571Z,16.52
2017-12-04T03:21:27.813Z,18.20
2017-12-04T03:23:54.077Z,17.27
2017-12-04T03:26:20.304Z,19.70
2017-12-04T03:28:46.565Z,18.90
2017-12-04T03:31:13.193Z,18.95
2017-12-04T03:33:39.776Z,17.02
2017-12-04T03:36:05.995Z,15.70
2017-12-04T03:38:32.240Z,16.30
2017-12-04T03:40:58.557Z,17.87
2017-12-04T03:43:24.789Z,20.48
2017-12-04T03:45:51.071Z,18.00
2017-12-04T03:48:17.297Z,16.80
2017-12-04T03:50:43.487Z,17.52
2017-12-04T03:53:09.692Z,19.15
2017-12-04T03:55:35.912Z,19.23
2017-12-04T03:58:02.117Z,20.83
2017-12-04T04:00:28.724Z,20.17
2017-12-04T04:02:54.928Z,16.70
2017-12-04T04:05:21.137Z,16.92
2017-12-04T04:07:47.346Z,16.98
2017-12-04T04:10:13.574Z,16.67
2017-12-04T04:12:39.781Z,16.05
2017-12-04T04:15:06.375Z,16.87
2017-12-04T04:17:32.585Z,16.20
2017-12-04T04:19:58.804Z,17.37
2017-12-04T04:22:25.019Z,16.48
2017-12-04T04:24:51.235Z,17.37
2017-12-04T04:27:17.843Z,18.02
2017-12-04T04:29:44.053Z,19.65
2017-12-04T04:32:10.261Z,18.95
2017-12-04T04:34:36.480Z,17.67
2017-12-04T04:37:02.689Z,16.80
2017-12-04T04:39:28.936Z,19.00
2017-12-04T04:41:55.146Z,18.60
2017-12-04T04:44:21.664Z,19.30
2017-12-04T04:46:48.236Z,18.08
2017-12-04T04:49:14.467Z,18.17
2017-12-04T04:51:40.747Z,20.98
2017-12-04T04:54:07.106Z,21.65
2017-12-04T04:56:33.405Z,21.92
2017-12-04T04:58:59.716Z,22.50
2017-12-04T05:01:25.981Z,22.10
2017-12-04T05:03:52.603Z,24.33
2017-12-04T05:06:19.270Z,27.15
2017-12-04T05:08:45.531Z,24.63
2017-12-04T05:11:11.758Z,24.87
2017-12-04T05:13:37.996Z,27.42
2017-12-04T05:16:04.227Z,24.48
2017-12-04T05:18:30.482Z,25.23
2017-12-04T05:20:56.763Z,23.85
2017-12-04T05:23:22.970Z,26.27
2017-12-04T05:25:49.199Z,24.65
2017-12-04T05:28:15.449Z,26.45
2017-12-04T05:30:41.682Z,26.33
2017-12-04T05:33:07.888Z,25.65
2017-12-04T05:35:34.107Z,27.25
2017-12-04T05:38:00.299Z,27.20
2017-12-04T05:40:26.485Z,24.25
2017-12-04T05:42:52.700Z,24.58
2017-12-04T05:45:18.967Z,24.45
2017-12-04T05:47:45.190Z,25.80
2017-12-04T05:50:11.420Z,23.23
2017-12-04T05:52:37.643Z,21.87
2017-12-04T05:55:03.873Z,22.05
2017-12-04T05:57:30.081Z,20.55
2017-12-04T05:59:56.280Z,18.83
2017-12-04T06:02:22.522Z,19.95
2017-12-04T06:04:48.720Z,21.75
2017-12-04T06:07:15.307Z,24.17
2017-12-04T06:09:41.513Z,22.33
2017-12-04T06:12:07.737Z,23.58
2017-12-04T06:14:33.956Z,23.25
2017-12-04T06:17:00.202Z,21.73
2017-12-04T06:19:26.479Z,25.05
2017-12-04T06:21:52.732Z,26.35
2017-12-04T06:24:19.322Z,26.17
2017-12-04T06:26:45.533Z,25.88
2017-12-04T06:29:11.756Z,22.77
2017-12-04T06:31:37.971Z,23.10
2017-12-04T06:34:04.178Z,23.87
2017-12-04T06:36:30.773Z,23.75
2017-12-04T06:38:56.996Z,25.52
2017-12-04T06:41:23.228Z,22.80
2017-12-04T06:43:49.484Z,23.45
2017-12-04T06:46:15.707Z,23.67
2017-12-04T06:48:41.976Z,21.52
2017-12-04T06:51:08.199Z,24.08
2017-12-04T06:53:34.391Z,22.05
2017-12-04T06:56:00.615Z,24.95
2017-12-04T06:58:26.807Z,26.27
2017-12-04T07:00:53.024Z,25.45
2017-12-04T07:03:19.228Z,23.85
2017-12-04T07:05:45.826Z,22.98
2017-12-04T07:08:12.028Z,24.48
2017-12-04T07:10:38.255Z,24.40
2017-12-04T07:13:04.511Z,26.05
2017-12-04T07:15:30.704Z,23.90
2017-12-04T07:17:56.923Z,26.12
2017-12-04T07:20:23.532Z,25.15
2017-12-04T07:22:50.117Z,23.75
2017-12-04T07:25:16.329Z,23.75
2017-12-04T07:27:42.577Z,22.75
2017-12-04T07:30:08.792Z,24.37
2017-12-04T07:32:35.023Z,23.90
2017-12-04T07:35:01.235Z,25.50
2017-12-04T07:37:27.427Z,26.83
2017-12-04T07:39:54.023Z,27.55
2017-12-04T07:42:20.260Z,24.48
2017-12-04T07:44:46.486Z,26.95
2017-12-04T07:47:12.722Z,26.45
2017-12-04T07:49:38.918Z,25.62
2017-12-04T07:52:05.128Z,27.42
2017-12-04T07:54:31.758Z,25.92
2017-12-04T07:56:57.961Z,25.70
2017-12-04T07:59:24.565Z,24.65
2017-12-04T08:01:50.780Z,27.30
2017-12-04T08:04:17.006Z,27.70
2017-12-04T08:06:43.250Z,26.87
2017-12-04T08:09:09.486Z,23.90
2017-12-04T08:11:35.721Z,23.23
2017-12-04T08:14:01.993Z,22.62
2017-12-04T08:16:28.207Z,22.25
2017-12-04T08:18:54.449Z,23.27
2017-12-04T08:21:20.689Z,25.37
2017-12-04T08:23:46.930Z,23.70
2017-12-04T08:26:13.152Z,25.60
2017-12-04T08:28:39.382Z,24.27
2017-12-04T08:31:05.594Z,28.15
2017-12-04T08:33:31.797Z,25.23
2017-12-04T08:35:58.379Z,25.52
2017-12-04T08:38:24.596Z,24.92
2017-12-04T08:40:50.849Z,22.23
2017-12-04T08:43:17.058Z,24.73
2017-12-04T08:45:43.264Z,25.27
2017-12-04T08:48:09.492Z,20.77
2017-12-04T08:50:35.730Z,23.15
2017-12-04T08:53:01.992Z,23.25
2017-12-04T08:55:28.239Z,23.62
2017-12-04T08:57:54.431Z,21.30
2017-12-04T09:00:20.672Z,21.12
2017-12-04T09:02:46.913Z,19.77
2017-12-04T09:05:13.171Z,20.33
2017-12-04T09:07:39.466Z,20.45
2017-12-04T09:10:05.782Z,19.62
2017-12-04T09:12:32.005Z,19.27
2017-12-04T09:14:58.255Z,18.87
2017-12-04T09:17:24.510Z,17.48
2017-12-04T09:19:51.155Z,21.45
2017-12-04T09:22:18.894Z,18.40
2017-12-04T09:24:45.116Z,18.60
2017-12-04T09:27:11.353Z,18.67
2017-12-04T09:29:37.601Z,17.90
2017-12-04T09:32:04.217Z,18.77
2017-12-04T09:34:30.476Z,18.90
2017-12-04T09:36:57.101Z,17.05
2017-12-04T09:39:23.719Z,18.40
2017-12-04T09:41:49.983Z,19.20
2017-12-04T09:44:16.575Z,19.70
2017-12-04T09:46:42.816Z,20.55
2017-12-04T09:49:09.098Z,21.02
2017-12-04T09:51:35.345Z,19.02
2017-12-04T09:54:01.649Z,19.65
2017-12-04T09:56:27.880Z,19.15
2017-12-04T09:58:54.111Z,21.50
2017-12-04T10:01:20.352Z,19.48
2017-12-04T10:03:46.598Z,23.40
2017-12-04T10:06:12.851Z,24.02
2017-12-04T10:08:39.135Z,22.00
2017-12-04T10:11:05.406Z,20.08
2017-12-04T10:13:31.728Z,20.10
2017-12-04T10:15:57.984Z,21.80
2017-12-04T10:18:24.646Z,20.20
2017-12-04T10:20:50.925Z,17.73
2017-12-04T10:23:17.175Z,18.40
2017-12-04T10:25:43.392Z,17.58
2017-12-04T10:28:09.648Z,17.83
2017-12-04T10:30:35.908Z,16.02
2017-12-04T10:33:02.126Z,15.75
2017-12-04T10:35:28.360Z,15.95
2017-12-04T10:37:54.613Z,18.12
2017-12-04T10:40:20.864Z,16.60
2017-12-04T10:42:47.108Z,15.05
2017-12-04T10:45:13.416Z,14.60
2017-12-04T10:47:39.734Z,15.95
2017-12-04T10:50:05.996Z,15.70
2017-12-04T10:52:32.641Z,17.37
2017-12-04T10:54:58.905Z,16.30
2017-12-04T10:57:25.183Z,16.10
2017-12-04T10:59:51.585Z,16.08
2017-12-04T11:02:17.844Z,16.98
2017-12-04T11:04:44.134Z,16.35
2017-12-04T11:07:10.417Z,15.23
2017-12-04T11:09:37.081Z,15.32
2017-12-04T11:12:03.300Z,15.60
2017-12-04T11:14:29.562Z,14.87
2017-12-04T11:16:55.830Z,16.33
2017-12-04T11:19:22.804Z,15.95
2017-12-04T11:21:49.053Z,17.40
2017-12-04T11:24:15.353Z,19.12
2017-12-04T11:26:41.575Z,20.33
2017-12-04T11:29:07.821Z,22.23
2017-12-04T11:31:34.328Z,19.75
2017-12-04T11:34:00.972Z,22.60
2017-12-04T11:36:27.573Z,21.12
2017-12-04T11:38:53.838Z,23.17
2017-12-04T11:41:20.115Z,24.52
2017-12-04T11:43:46.336Z,21.65
2017-12-04T11:46:12.654Z,23.38
2017-12-04T11:48:38.945Z,22.58
2017-12-04T11:51:05.576Z,19.00
2017-12-04T11:53:32.159Z,21.15
2017-12-04T11:55:58.372Z,19.05
2017-12-04T11:58:24.587Z,18.62
2017-12-04T12:00:50.837Z,17.67
2017-12-04T12:03:17.059Z,17.30
2017-12-04T12:05:43.301Z,18.00
2017-12-04T12:08:09.514Z,16.58
2017-12-04T12:10:35.798Z,15.40
2017-12-04T12:13:02.005Z,16.05
2017-12-04T12:15:28.240Z,15.88
2017-12-04T12:17:54.433Z,15.48
2017-12-04T12:20:20.703Z,15.77
2017-12-04T12:22:46.903Z,14.85
2017-12-04T12:25:13.151Z,18.15
2017-12-04T12:27:39.364Z,16.62
2017-12-04T12:30:05.600Z,17.77
2017-12-04T12:32:31.805Z,15.32
2017-12-04T12:34:58.053Z,16.52
2017-12-04T12:37:24.618Z,16.23
2017-12-04T12:39:50.842Z,17.62
2017-12-04T12:42:17.087Z,18.90
2017-12-04T12:44:43.286Z,17.20
2017-12-04T12:47:09.541Z,16.85
2017-12-04T12:49:35.793Z,16.35
2017-12-04T12:52:02.048Z,17.58
2017-12-04T12:54:28.264Z,23.58
2017-12-04T12:56:54.526Z,24.48
2017-12-04T12:59:20.772Z,26.02
2017-12-04T13:01:47.393Z,25.60
2017-12-04T13:04:13.588Z,22.98
2017-12-04T13:06:39.901Z,24.67
2017-12-04T13:09:06.129Z,24.58
2017-12-04T13:11:32.357Z,22.20
2017-12-04T13:13:58.593Z,22.77
2017-12-04T13:16:24.805Z,28.00
2017-12-04T13:18:51.870Z,28.77
2017-12-04T13:21:18.095Z,27.83
2017-12-04T13:23:44.299Z,26.50
2017-12-04T13:26:10.925Z,24.98
2017-12-04T13:28:37.496Z,22.75
2017-12-04T13:31:03.765Z,22.42
2017-12-04T13:33:42.283Z,20.48
2017-12-04T13:36:20.920Z,19.58
2017-12-04T13:38:47.127Z,18.50
2017-12-04T13:41:13.341Z,19.73
2017-12-04T13:43:39.572Z,16.45
2017-12-04T13:46:05.877Z,16.33
2017-12-04T13:48:32.131Z,17.60
2017-12-04T13:51:01.424Z,16.67
2017-12-04T13:53:27.654Z,16.42
2017-12-04T13:55:53.936Z,16.95
2017-12-04T13:58:20.589Z,18.25
2017-12-04T14:00:46.839Z,18.62
2017-12-04T14:03:13.092Z,21.35
2017-12-04T14:05:40.006Z,21.25
2017-12-04T14:08:06.223Z,28.52
2017-12-04T14:10:32.462Z,21.35
2017-12-04T14:12:58.689Z,22.87
2017-12-04T14:15:24.893Z,25.35
2017-12-04T14:17:51.139Z,26.80
2017-12-04T14:20:17.381Z,24.40
2017-12-04T14:22:43.623Z,19.87
2017-12-04T14:25:09.859Z,18.33
2017-12-04T14:27:36.082Z,17.90
2017-12-04T14:30:02.324Z,17.65
2017-12-04T14:32:28.624Z,16.73
2017-12-04T14:34:54.881Z,16.20
2017-12-04T14:37:22.359Z,16.80
2017-12-04T14:39:48.914Z,16.42
2017-12-04T14:42:15.161Z,17.52
2017-12-04T14:44:41.392Z,17.77
2017-12-04T14:47:07.687Z,18.45
2017-12-04T14:49:34.823Z,16.50
2017-12-04T14:52:01.473Z,17.52
2017-12-04T14:54:28.088Z,16.92
2017-12-04T14:56:54.349Z,16.40
2017-12-04T14:59:20.614Z,15.77
2017-12-04T15:01:46.893Z,18.27
2017-12-04T15:04:13.152Z,37.50
2017-12-04T15:06:39.441Z,88.82
2017-12-04T15:09:06.120Z,54.85
2017-12-04T15:11:32.438Z,92.28
2017-12-04T15:13:58.769Z,71.53
2017-12-04T15:16:25.007Z,91.70
2017-12-04T15:18:51.270Z,80.30
2017-12-04T15:21:17.512Z,78.18
2017-12-04T15:23:43.779Z,55.55
2017-12-04T15:26:10.032Z,49.30
2017-12-04T15:28:36.326Z,47.10
2017-12-04T15:31:02.961Z,51.45
2017-12-04T15:33:29.577Z,46.42
2017-12-04T15:35:55.843Z,46.00
2017-12-04T15:38:22.148Z,49.58
2017-12-04T15:40:48.458Z,46.08
2017-12-04T15:43:14.750Z,45.80
2017-12-04T15:45:41.039Z,52.67
2017-12-04T15:48:07.299Z,43.85
2017-12-04T15:50:33.544Z,55.20
2017-12-04T15:52:59.784Z,52.13
2017-12-04T15:55:26.089Z,54.58
2017-12-04T15:57:52.406Z,53.95
2017-12-04T16:00:18.651Z,48.55
2017-12-04T16:02:44.918Z,51.75
2017-12-04T16:05:11.194Z,43.80
2017-12-04T16:07:37.461Z,42.50
2017-12-04T16:10:03.707Z,47.20
2017-12-04T16:12:29.959Z,72.35
2017-12-04T16:14:56.238Z,94.05
2017-12-04T16:17:22.468Z,75.37
2017-12-04T16:19:48.713Z,80.75
2017-12-04T16:22:14.941Z,87.60
2017-12-04T16:24:41.214Z,69.03
2017-12-04T16:27:07.491Z,80.72
2017-12-04T16:29:33.785Z,52.38
2017-12-04T16:32:00.013Z,43.65
2017-12-04T16:34:26.287Z,47.13
2017-12-04T16:36:52.537Z,56.83
2017-12-04T16:39:19.141Z,58.72
2017-12-04T16:41:45.411Z,60.83
2017-12-04T16:44:12.089Z,55.12
2017-12-04T16:46:38.353Z,52.65
2017-12-04T16:49:04.653Z,45.42
2017-12-04T16:51:31.642Z,50.60
2017-12-04T16:53:57.952Z,52.65
2017-12-04T16:56:24.215Z,49.75
2017-12-04T16:58:50.498Z,42.38
2017-12-04T17:01:16.761Z,50.60
2017-12-04T17:03:43.083Z,48.55
2017-12-04T17:06:09.359Z,48.33
2017-12-04T17:08:35.628Z,44.45
2017-12-04T17:11:01.872Z,42.67
2017-12-04T17:13:28.159Z,42.42
2017-12-04T17:15:54.451Z,43.65
2017-12-04T17:18:21.927Z,44.88
2017-12-04T17:20:48.545Z,48.00
2017-12-04T17:23:15.160Z,41.65
2017-12-04T17:25:41.437Z,43.85
2017-12-04T17:28:07.676Z,78.85
2017-12-04T17:30:33.984Z,73.90
2017-12-04T17:33:00.268Z,71.47
2017-12-04T17:35:26.511Z,59.10
2017-12-04T17:37:53.274Z,38.15
2017-12-04T17:40:19.527Z,81.97
2017-12-04T17:42:45.764Z,103.97
2017-12-04T17:45:12.039Z,79.78
2017-12-04T17:47:38.728Z,88.45
2017-12-04T17:50:05.026Z,117.87
2017-12-04T17:52:31.300Z,80.18
2017-12-04T17:54:57.541Z,93.85
2017-12-04T17:57:23.793Z,93.30
2017-12-04T17:59:50.438Z,110.28
2017-12-04T18:02:17.092Z,92.55
2017-12-04T18:04:43.378Z,28.30
2017-12-04T18:07:09.705Z,18.48
2017-12-04T18:09:36.012Z,16.73
2017-12-04T18:12:02.276Z,18.42
2017-12-04T18:14:28.556Z,18.60
2017-12-04T18:16:54.853Z,17.52
2017-12-04T18:19:21.520Z,18.62
2017-12-04T18:21:47.880Z,18.33
2017-12-04T18:24:14.157Z,18.80
2017-12-04T18:26:40.849Z,19.02
2017-12-04T18:29:07.157Z,16.92
2017-12-04T18:31:33.491Z,22.40
2017-12-04T18:33:59.787Z,18.33
2017-12-04T18:36:26.144Z,18.10
2017-12-04T18:38:52.423Z,28.85
2017-12-04T18:41:18.732Z,27.27
2017-12-04T18:43:45.076Z,24.17
2017-12-04T18:46:11.753Z,21.05
2017-12-04T18:48:38.056Z,109.85
2017-12-04T18:51:04.314Z,23.50
2017-12-04T18:53:30.716Z,26.60
2017-12-04T18:55:57.000Z,20.90
2017-12-04T18:58:23.289Z,22.73
2017-12-04T19:00:49.957Z,24.08
2017-12-04T19:03:16.278Z,22.70
2017-12-04T19:05:42.581Z,21.05
2017-12-04T19:08:08.860Z,18.98
2017-12-04T19:10:35.175Z,20.58
2017-12-04T19:13:02.342Z,22.00
2017-12-04T19:15:29.766Z,24.33
2017-12-04T19:17:56.072Z,22.40
2017-12-04T19:20:22.855Z,25.75
2017-12-04T19:22:49.153Z,27.98
2017-12-04T19:25:15.897Z,27.58
2017-12-04T19:27:42.591Z,27.80
2017-12-04T19:30:08.932Z,29.92
2017-12-04T19:32:35.273Z,22.98
2017-12-04T19:35:01.622Z,19.23
2017-12-04T19:37:27.923Z,19.23
2017-12-04T19:39:54.270Z,18.02
2017-12-04T19:42:20.634Z,19.58
2017-12-04T19:44:47.024Z,17.33
2017-12-04T19:47:13.342Z,18.05
2017-12-04T19:49:39.694Z,19.20
2017-12-04T19:52:06.405Z,25.35
2017-12-04T19:54:32.748Z,17.55
2017-12-04T19:56:58.997Z,19.45
2017-12-04T19:59:25.666Z,18.12
2017-12-04T20:01:51.998Z,18.60
2017-12-04T20:04:18.325Z,17.85
2017-12-04T20:06:44.817Z,16.25
2017-12-04T20:09:11.136Z,17.17
2017-12-04T20:11:37.399Z,16.40
2017-12-04T20:14:04.078Z,16.52
2017-12-04T20:16:31.232Z,17.58
2017-12-04T20:18:57.488Z,14.52
2017-12-04T20:21:23.837Z,16.35
2017-12-04T20:23:50.512Z,15.77
2017-12-04T20:26:16.822Z,19.73
2017-12-04T20:28:43.101Z,30.70
2017-12-04T20:31:09.384Z,23.55
2017-12-04T20:33:35.735Z,24.80
2017-12-04T20:36:02.019Z,19.10
2017-12-04T20:38:28.722Z,19.40
2017-12-04T20:40:55.044Z,18.33
2017-12-04T20:43:21.394Z,20.05
2017-12-04T20:45:47.690Z,21.92
2017-12-04T20:48:13.974Z,17.55
2017-12-04T20:50:40.252Z,18.60
2017-12-04T20:53:06.511Z,20.00
2017-12-04T20:55:33.118Z,16.65
2017-12-04T20:57:59.423Z,17.83
2017-12-04T21:00:25.721Z,19.85
2017-12-04T21:02:52.056Z,15.75
2017-12-04T21:05:18.350Z,14.48
2017-12-04T21:07:49.506Z,15.15
2017-12-04T21:10:28.340Z,16.20
2017-12-04T21:13:06.700Z,14.57
2017-12-04T21:18:27.891Z,14.40
2017-12-04T21:20:54.200Z,16.62
2017-12-04T21:23:20.507Z,14.75
2017-12-04T21:25:46.785Z,16.17
2017-12-04T21:28:13.089Z,16.35
2017-12-04T21:30:39.367Z,16.37
2017-12-04T21:33:05.668Z,18.37
2017-12-04T21:35:32.002Z,17.37
2017-12-04T21:37:58.279Z,19.30
2017-12-04T21:40:24.665Z,21.20
2017-12-04T21:42:50.962Z,21.10
2017-12-04T21:45:17.274Z,17.58
2017-12-04T21:47:43.571Z,18.23
2017-12-04T21:50:10.208Z,15.20
2017-12-04T21:52:36.836Z,14.35
2017-12-04T21:55:03.531Z,13.35
2017-12-04T21:57:29.850Z,12.52
2017-12-04T21:59:56.064Z,13.57
2017-12-04T22:02:22.327Z,15.02
2017-12-04T22:04:48.622Z,14.60
2017-12-04T22:07:14.868Z,12.35
2017-12-04T22:09:41.118Z,13.10
2017-12-04T22:12:07.434Z,14.63
2017-12-04T22:14:33.786Z,13.23
2017-12-04T22:17:00.061Z,14.75
2017-12-04T22:19:26.345Z,15.63
2017-12-04T22:21:52.616Z,18.15
2017-12-04T22:24:18.853Z,17.50
2017-12-04T22:26:45.133Z,22.37
2017-12-04T22:29:11.387Z,24.10
2017-12-04T22:31:37.647Z,31.70
2017-12-04T22:34:03.927Z,25.77
2017-12-04T22:36:30.185Z,20.15
2017-12-04T22:38:56.415Z,16.33
2017-12-04T22:41:22.675Z,14.25
2017-12-04T22:43:48.957Z,12.15
2017-12-04T22:46:15.220Z,10.85
2017-12-04T22:48:41.508Z,11.95
2017-12-04T22:51:08.139Z,10.77
2017-12-04T22:53:34.429Z,11.32
2017-12-04T22:56:00.639Z,10.18
2017-12-04T22:58:26.904Z,10.70
2017-12-04T23:00:53.168Z,9.63
2017-12-04T23:03:19.428Z,9.88
2017-12-04T23:05:45.721Z,11.60
2017-12-04T23:08:13.352Z,10.77
2017-12-04T23:10:39.984Z,10.35
2017-12-04T23:13:06.233Z,10.73
2017-12-04T23:15:32.464Z,11.25
2017-12-04T23:17:58.720Z,11.23
2017-12-04T23:20:25.384Z,11.75
2017-12-04T23:22:51.633Z,10.40
2017-12-04T23:25:18.511Z,10.65
2017-12-04T23:27:44.776Z,9.85
2017-12-04T23:30:11.029Z,9.80
2017-12-04T23:32:37.259Z,10.43
2017-12-04T23:35:03.522Z,10.32
2017-12-04T23:37:29.779Z,11.30
2017-12-04T23:39:56.040Z,9.82
2017-12-04T23:42:22.681Z,9.15
2017-12-04T23:44:48.899Z,10.30
2017-12-04T23:47:15.136Z,10.70
2017-12-04T23:49:41.371Z,9.55
2017-12-04T23:52:07.606Z,9.77
2017-12-04T23:54:33.844Z,9.23
2017-12-04T23:57:00.064Z,9.73
2017-12-04T23:59:26.278Z,9.35
